Terminal Aerodrome Forecast
Issued by NWS Tulsa, OK

Home | Current Version | Previous Version | Text Only | Print | Product List | Glossary On
Versions: 1 2 3 4 5 6 7 8 9 10 11 12 13 14 15 16
000
FTUS44 KTSA 072024 AAA
TAFTUL
TAF AMD
KTUL 072024Z 0720/0818 01010KT 3SM SHRA BR VCTS OVC010CB
      TEMPO 0720/0723 1SM +SHRA BKN008 OVC020
     FM080000 03007KT 4SM RA BR BKN007 OVC015
      TEMPO 0800/0804 1SM +RA OVC007
     FM081100 26011KT 5SM -RA OVC012=

USA.gov is the U.S. government's official web portal to all federal, state and local government web resources and services.